Time;durP1;ratioP1;P1;durP2;ratioP2;P2;SDS_P1;SDS_P2;PMS_P1;PMS_P2;Temp;Humidity;BMP_temperature;BMP_pressure;BME280_temperature;BME280_humidity;BME280_pressure;Samples;Min_cycle;Max_cycle;Signal;HPM_P1;HPM_P2
2023/11/17 00:01:15;;;;;;;;;;;;;;;10.28;51.29;99821.13;5093121;28;19991;-77
2023/11/17 00:03:40;;;;;;;;;;;;;;;10.28;50.66;99821.13;5095026;28;19920;-78
2023/11/17 00:06:06;;;;;;;;;;;;;;;10.25;51.14;99816.19;5095058;28;19912;-77
2023/11/17 00:08:32;;;;;;;;;;;;;;;10.22;51.07;99815.72;5076826;28;19911;-78
2023/11/17 00:10:57;;;;;;;;;;;;;;;10.17;51.76;99824.94;5094000;28;19995;-77
2023/11/17 00:13:22;;;;;;;;;;;;;;;10.13;51.51;99822.78;5095456;28;20377;-77
2023/11/17 00:15:49;;;;;;;;;;;;;;;10.13;51.91;99823.63;5076824;28;19959;-76
2023/11/17 00:18:14;;;;;;;;;;;;;;;10.13;51.40;99828.06;5095561;28;19924;-77
2023/11/17 00:20:40;;;;;;;;;;;;;;;10.12;51.98;99831.69;5095799;28;19926;-77
2023/11/17 00:23:06;;;;;;;;;;;;;;;10.10;51.79;99821.31;5094973;28;20310;-76
2023/11/17 00:25:32;;;;;;;;;;;;;;;10.07;51.64;99824.28;5094531;28;20007;-77
2023/11/17 00:27:57;;;;;;;;;;;;;;;10.04;51.62;99829.06;5076577;28;19919;-77
2023/11/17 00:30:23;;;;;;;;;;;;;;;10.05;51.84;99815.72;5095092;28;20002;-78
2023/11/17 00:32:48;;;;;;;;;;;;;;;10.08;52.45;99811.91;5095137;28;19912;-78
2023/11/17 00:35:14;;;;;;;;;;;;;;;10.00;53.01;99818.03;5094953;28;19955;-77
2023/11/17 00:37:39;;;;;;;;;;;;;;;9.96;53.21;99806.19;5094859;28;19919;-77
2023/11/17 00:40:08;;;;;;;;;;;;;;;9.96;52.92;99815.91;5094379;28;20499;-77
2023/11/17 00:42:33;;;;;;;;;;;;;;;9.97;52.52;99817.53;5094480;28;20405;-76
2023/11/17 00:44:59;;;;;;;;;;;;;;;9.96;52.95;99814.09;5093352;28;19915;-77
2023/11/17 00:47:24;;;;;;;;;;;;;;;9.89;52.98;99805.19;5076370;28;20316;-76
2023/11/17 00:49:51;;;;;;;;;;;;;;;9.89;52.60;99802.56;5094758;28;20395;-78
2023/11/17 00:52:16;;;;;;;;;;;;;;;9.93;52.83;99795.97;5094201;28;19951;-77
2023/11/17 00:54:42;;;;;;;;;;;;;;;9.95;52.87;99786.06;5094246;28;20377;-77
2023/11/17 00:57:11;;;;;;;;;;;;;;;9.94;52.95;99775.69;5094135;28;19916;-77
2023/11/17 00:59:39;;;;;;;;;;;;;;;9.88;53.00;99771.91;5094111;28;19917;-77
2023/11/17 01:02:05;;;;;;;;;;;;;;;9.85;53.80;99761.69;5094038;28;20299;-77
2023/11/17 01:04:31;;;;;;;;;;;;;;;9.84;53.94;99758.22;5093963;28;20010;-77
2023/11/17 01:06:56;;;;;;;;;;;;;;;9.82;53.77;99756.75;5093971;28;19999;-77
2023/11/17 01:09:22;;;;;;;;;;;;;;;9.79;53.63;99752.63;5093858;28;19919;-78
2023/11/17 01:11:48;;;;;;;;;;;;;;;9.78;53.73;99742.25;5093377;28;20380;-77
2023/11/17 01:14:13;;;;;;;;;;;;;;;9.85;52.93;99743.22;5093760;28;19973;-77
2023/11/17 01:16:39;;;;;;;;;;;;;;;9.89;53.66;99747.19;5093740;28;19999;-77
2023/11/17 01:19:04;;;;;;;;;;;;;;;9.95;53.77;99745.69;5093777;28;19916;-76
2023/11/17 01:21:30;;;;;;;;;;;;;;;9.96;53.95;99736.78;5093699;28;19912;-77
2023/11/17 01:23:56;;;;;;;;;;;;;;;9.90;53.76;99734.81;5092427;28;20442;-77
2023/11/17 01:26:21;;;;;;;;;;;;;;;9.88;53.44;99733.16;5075485;28;19912;-77
2023/11/17 01:28:46;;;;;;;;;;;;;;;9.90;53.34;99722.44;5093673;28;19946;-78
2023/11/17 01:31:12;;;;;;;;;;;;;;;9.89;54.24;99723.44;5093560;28;19992;-76
2023/11/17 01:33:38;;;;;;;;;;;;;;;9.87;54.14;99720.97;5093464;28;20389;-77
2023/11/17 01:36:05;;;;;;;;;;;;;;;9.87;54.00;99720.97;5091872;28;19912;-77
2023/11/17 01:38:31;;;;;;;;;;;;;;;9.93;53.50;99724.75;5093165;28;19919;-78
2023/11/17 01:40:58;;;;;;;;;;;;;;;9.96;53.54;99719.13;5074931;28;19916;-78
2023/11/17 01:43:24;;;;;;;;;;;;;;;9.95;54.13;99720.13;5093255;28;19934;-77
2023/11/17 01:45:50;;;;;;;;;;;;;;;9.90;53.79;99701.34;5093261;28;19912;-77
2023/11/17 01:48:15;;;;;;;;;;;;;;;9.87;54.59;99696.41;5093260;28;19912;-77
2023/11/17 01:50:40;;;;;;;;;;;;;;;9.86;54.40;99697.41;5093180;28;19912;-78
2023/11/17 01:53:07;;;;;;;;;;;;;;;9.85;54.31;99691.31;5093224;28;20349;-76
2023/11/17 01:55:32;;;;;;;;;;;;;;;9.88;54.28;99693.59;5093236;28;19920;-78
2023/11/17 01:57:58;;;;;;;;;;;;;;;9.84;54.61;99687.03;5093265;28;19912;-78
2023/11/17 02:00:23;;;;;;;;;;;;;;;9.82;54.10;99688.19;5093136;28;20068;-77
2023/11/17 02:02:50;;;;;;;;;;;;;;;9.81;54.67;99676.81;5093358;28;19920;-77
2023/11/17 02:05:17;;;;;;;;;;;;;;;9.79;54.64;99676.16;5074900;28;20076;-76
2023/11/17 02:07:58;;;;;;;;;;;;;;;9.78;55.11;99676.34;5093154;28;19919;-77
2023/11/17 02:10:28;;;;;;;;;;;;;;;9.79;54.32;99685.91;5092745;28;19913;-77
2023/11/17 02:12:59;;;;;;;;;;;;;;;9.82;54.41;99681.09;5092710;28;20104;-77
2023/11/17 02:15:29;;;;;;;;;;;;;;;9.82;54.10;99678.47;5092723;28;20384;-77
2023/11/17 02:17:56;;;;;;;;;;;;;;;9.86;54.38;99684.22;5092511;28;19912;-77
2023/11/17 02:20:25;;;;;;;;;;;;;;;9.87;54.76;99668.22;5092413;28;19916;-77
2023/11/17 02:22:53;;;;;;;;;;;;;;;9.85;54.81;99664.94;5073928;28;20385;-76
2023/11/17 02:25:24;;;;;;;;;;;;;;;9.84;54.75;99654.56;5074086;28;19912;-77
2023/11/17 02:28:12;;;;;;;;;;;;;;;9.84;54.97;99659.84;5092574;28;19947;-77
2023/11/17 02:30:39;;;;;;;;;;;;;;;9.83;54.89;99663.47;5092606;28;19919;-77
2023/11/17 02:33:07;;;;;;;;;;;;;;;9.85;54.11;99658.84;5092650;28;19916;-76
2023/11/17 02:35:33;;;;;;;;;;;;;;;9.86;54.68;99661.31;5092346;28;20420;-77
2023/11/17 02:38:05;;;;;;;;;;;;;;;9.84;55.06;99655.38;5092308;28;19919;-77
2023/11/17 02:40:37;;;;;;;;;;;;;;;9.84;54.49;99665.94;5091966;28;19946;-77
2023/11/17 02:43:07;;;;;;;;;;;;;;;9.85;54.96;99662.31;5092032;28;20008;-77
2023/11/17 02:45:38;;;;;;;;;;;;;;;9.86;55.05;99656.03;5092175;28;19920;-77
2023/11/17 02:48:03;;;;;;;;;;;;;;;9.85;54.41;99664.13;5074027;28;19919;-77
2023/11/17 02:50:38;;;;;;;;;;;;;;;9.82;55.67;99646.81;5091940;28;20312;-77
2023/11/17 02:53:17;;;;;;;;;;;;;;;9.85;54.17;99637.75;5092054;28;19913;-77
2023/11/17 02:55:43;;;;;;;;;;;;;;;9.87;54.74;99633.13;5092010;28;19916;-77
2023/11/17 02:58:09;;;;;;;;;;;;;;;9.85;54.70;99643.84;5092047;28;19918;-76
2023/11/17 03:00:34;;;;;;;;;;;;;;;9.82;55.15;99649.47;5091831;28;19924;-77
2023/11/17 03:02:59;;;;;;;;;;;;;;;9.83;55.46;99650.28;5091682;28;20007;-77
2023/11/17 03:05:26;;;;;;;;;;;;;;;9.84;55.25;99631.66;5092053;28;20527;-77
2023/11/17 03:07:52;;;;;;;;;;;;;;;9.86;55.20;99619.13;5092041;28;20026;-76
2023/11/17 03:10:18;;;;;;;;;;;;;;;9.89;55.08;99612.69;5091858;28;19994;-77
2023/11/17 03:12:44;;;;;;;;;;;;;;;9.84;54.88;99607.09;5092102;28;19916;-77
2023/11/17 03:15:09;;;;;;;;;;;;;;;9.87;55.40;99615.47;5092011;28;19919;-78
2023/11/17 03:17:36;;;;;;;;;;;;;;;9.87;55.35;99607.56;5091968;28;19919;-77
2023/11/17 03:20:01;;;;;;;;;;;;;;;9.83;56.29;99595.72;5091887;28;19916;-76
2023/11/17 03:22:26;;;;;;;;;;;;;;;9.83;55.64;99589.63;5092121;28;19912;-76
2023/11/17 03:24:52;;;;;;;;;;;;;;;9.84;55.15;99580.72;5091842;28;19913;-78
2023/11/17 03:27:17;;;;;;;;;;;;;;;9.85;55.88;99582.38;5091787;28;19916;-77
2023/11/17 03:29:46;;;;;;;;;;;;;;;9.86;56.19;99582.19;5073541;28;19920;-78
2023/11/17 03:32:12;;;;;;;;;;;;;;;9.86;55.48;99579.56;5091915;28;20331;-77
2023/11/17 03:34:37;;;;;;;;;;;;;;;9.86;55.91;99571.66;5092601;28;20007;-78
2023/11/17 03:37:03;;;;;;;;;;;;;;;9.86;57.11;99576.91;5095895;28;20305;-77
2023/11/17 03:39:30;;;;;;;;;;;;;;;9.90;56.77;99577.41;5077401;28;20332;-77
2023/11/17 03:41:55;;;;;;;;;;;;;;;9.93;56.98;99561.22;5095668;28;20286;-77
2023/11/17 03:44:24;;;;;;;;;;;;;;;9.99;55.31;99567.63;5095599;28;19916;-77
2023/11/17 03:46:50;;;;;;;;;;;;;;;10.02;55.29;99568.09;5095590;28;19912;-77
2023/11/17 03:49:16;;;;;;;;;;;;;;;10.03;55.65;99561.00;5095765;28;20329;-77
2023/11/17 03:51:42;;;;;;;;;;;;;;;10.02;56.16;99556.72;5095371;28;19912;-77
2023/11/17 03:54:09;;;;;;;;;;;;;;;9.97;56.12;99546.69;5095354;28;19912;-77
2023/11/17 03:56:34;;;;;;;;;;;;;;;9.94;55.96;99540.94;5094025;28;19954;-78
2023/11/17 03:59:00;;;;;;;;;;;;;;;9.93;56.73;99541.94;5093974;28;19916;-77
2023/11/17 04:01:25;;;;;;;;;;;;;;;9.93;56.24;99540.13;5095263;28;19920;-78
2023/11/17 04:03:51;;;;;;;;;;;;;;;9.93;56.29;99528.75;5095129;28;19927;-77
2023/11/17 04:06:16;;;;;;;;;;;;;;;9.97;56.46;99519.50;5095210;28;19920;-78
2023/11/17 04:08:41;;;;;;;;;;;;;;;10.02;56.24;99514.53;5095275;28;19911;-77
2023/11/17 04:11:13;;;;;;;;;;;;;;;10.08;57.32;99512.00;5092945;28;20177;-77
2023/11/17 04:13:41;;;;;;;;;;;;;;;10.14;56.98;99518.41;5094918;28;19912;-77
2023/11/17 04:16:07;;;;;;;;;;;;;;;10.18;57.27;99515.22;5094864;28;19912;-78
2023/11/17 04:18:32;;;;;;;;;;;;;;;10.22;57.27;99499.91;5094846;28;20282;-76
2023/11/17 04:20:58;;;;;;;;;;;;;;;10.27;57.92;99486.16;5094934;28;19962;-76
2023/11/17 04:23:23;;;;;;;;;;;;;;;10.32;58.40;99486.47;5076714;28;19919;-77
2023/11/17 04:25:50;;;;;;;;;;;;;;;10.35;56.83;99489.56;5094740;28;20004;-77
2023/11/17 04:28:16;;;;;;;;;;;;;;;10.41;58.15;99488.88;5094562;28;19991;-77
2023/11/17 04:30:41;;;;;;;;;;;;;;;10.47;58.41;99495.28;5076630;28;20002;-78
2023/11/17 04:33:06;;;;;;;;;;;;;;;10.53;57.98;99486.63;5094640;28;19912;-77
2023/11/17 04:35:32;;;;;;;;;;;;;;;10.57;58.84;99487.09;5094630;28;19912;-77
2023/11/17 04:37:57;;;;;;;;;;;;;;;10.62;57.32;99495.31;5076352;28;20004;-78
2023/11/17 04:40:22;;;;;;;;;;;;;;;10.68;58.52;99489.31;5094389;28;19923;-77
2023/11/17 04:42:48;;;;;;;;;;;;;;;10.74;58.28;99494.69;5094635;28;20035;-77
2023/11/17 04:45:13;;;;;;;;;;;;;;;10.79;58.21;99475.66;5094506;28;19919;-76
2023/11/17 04:47:38;;;;;;;;;;;;;;;10.85;57.57;99466.19;5093718;28;20413;-77
2023/11/17 04:50:04;;;;;;;;;;;;;;;10.89;57.39;99460.34;5094416;28;20501;-78
2023/11/17 04:52:30;;;;;;;;;;;;;;;10.92;58.97;99457.34;5076087;28;19919;-77
2023/11/17 04:54:56;;;;;;;;;;;;;;;10.94;58.29;99458.00;5094153;28;19999;-77
2023/11/17 04:57:22;;;;;;;;;;;;;;;10.96;58.69;99463.09;5094252;28;19947;-77
2023/11/17 04:59:50;;;;;;;;;;;;;;;10.97;58.57;99462.09;5094098;28;19979;-77
2023/11/17 05:02:15;;;;;;;;;;;;;;;10.98;59.53;99461.09;5094294;28;20315;-77
2023/11/17 05:04:42;;;;;;;;;;;;;;;10.95;57.77;99458.81;5093847;28;20392;-77
2023/11/17 05:07:07;;;;;;;;;;;;;;;10.93;56.33;99460.81;5094256;28;19923;-78
2023/11/17 05:09:32;;;;;;;;;;;;;;;10.88;57.60;99463.19;5094047;28;19912;-77
2023/11/17 05:11:57;;;;;;;;;;;;;;;10.86;58.01;99459.91;5093860;28;19912;-78
2023/11/17 05:14:23;;;;;;;;;;;;;;;10.82;59.13;99464.72;5075715;28;19944;-77
2023/11/17 05:16:48;;;;;;;;;;;;;;;10.74;58.63;99470.91;5093818;28;20384;-78
2023/11/17 05:19:14;;;;;;;;;;;;;;;10.72;59.65;99474.72;5093813;28;19920;-77
2023/11/17 05:21:40;;;;;;;;;;;;;;;10.69;58.89;99475.91;5093873;28;19919;-77
2023/11/17 05:24:06;;;;;;;;;;;;;;;10.69;59.36;99483.03;5093650;28;19912;-77
2023/11/17 05:26:32;;;;;;;;;;;;;;;10.69;58.49;99473.28;5093776;28;19908;-77
2023/11/17 05:28:58;;;;;;;;;;;;;;;10.72;58.22;99472.91;5093712;28;19918;-76
2023/11/17 05:31:26;;;;;;;;;;;;;;;10.69;58.83;99469.81;5094176;28;19918;-77
2023/11/17 05:33:51;;;;;;;;;;;;;;;10.69;60.18;99467.19;5093722;28;20384;-77
2023/11/17 05:36:16;;;;;;;;;;;;;;;10.67;59.96;99467.34;5092453;28;20007;-77
2023/11/17 05:38:42;;;;;;;;;;;;;;;10.67;60.18;99462.06;5093902;28;19912;-78
2023/11/17 05:41:08;;;;;;;;;;;;;;;10.68;59.65;99462.91;5074905;28;19916;-77
2023/11/17 05:43:34;;;;;;;;;;;;;;;10.68;60.19;99463.72;5093381;28;19919;-77
2023/11/17 05:46:00;;;;;;;;;;;;;;;10.66;60.60;99478.91;5093224;28;19913;-77
2023/11/17 05:48:25;;;;;;;;;;;;;;;10.68;60.02;99469.00;5093410;28;19912;-78
2023/11/17 05:50:50;;;;;;;;;;;;;;;10.69;58.50;99465.34;5093148;28;19958;-77
2023/11/17 05:53:16;;;;;;;;;;;;;;;10.72;58.95;99459.72;5075360;28;19912;-77
2023/11/17 05:55:41;;;;;;;;;;;;;;;10.73;58.94;99461.34;5093004;28;20403;-77
2023/11/17 05:58:07;;;;;;;;;;;;;;;10.78;59.36;99458.16;5073732;28;19912;-77
2023/11/17 06:00:33;;;;;;;;;;;;;;;10.77;58.61;99457.34;5092869;28;19920;-77
2023/11/17 06:02:58;;;;;;;;;;;;;;;10.72;58.15;99449.16;5092609;28;19926;-77
2023/11/17 06:05:24;;;;;;;;;;;;;;;10.74;58.14;99462.16;5092705;28;19927;-78
2023/11/17 06:07:49;;;;;;;;;;;;;;;10.75;58.47;99458.53;5078232;28;19928;-77
2023/11/17 06:10:14;;;;;;;;;;;;;;;10.74;57.55;99463.00;5092901;28;19916;-77
2023/11/17 06:12:41;;;;;;;;;;;;;;;10.72;57.34;99469.44;5092952;28;19912;-78
2023/11/17 06:15:07;;;;;;;;;;;;;;;10.67;57.54;99471.81;5092877;28;19912;-77
2023/11/17 06:17:32;;;;;;;;;;;;;;;10.53;58.08;99464.69;5092537;28;20003;-78
2023/11/17 06:20:00;;;;;;;;;;;;;;;10.44;57.85;99463.94;5090688;28;19927;-77
2023/11/17 06:22:27;;;;;;;;;;;;;;;10.32;57.36;99457.44;5092473;28;19987;-76
2023/11/17 06:24:53;;;;;;;;;;;;;;;10.25;58.23;99465.25;5092700;28;19920;-77
2023/11/17 06:27:19;;;;;;;;;;;;;;;10.08;58.87;99461.06;5092443;28;19916;-77
2023/11/17 06:29:45;;;;;;;;;;;;;;;10.01;58.65;99466.22;5074286;28;19912;-77
2023/11/17 06:32:10;;;;;;;;;;;;;;;10.02;57.84;99462.59;5092690;28;20358;-77
2023/11/17 06:34:36;;;;;;;;;;;;;;;10.01;57.68;99454.84;5092344;28;20068;-77
2023/11/17 06:37:01;;;;;;;;;;;;;;;9.85;57.74;99456.63;5092311;28;19919;-77
2023/11/17 06:39:29;;;;;;;;;;;;;;;9.76;57.82;99447.13;5076203;28;19923;-78
2023/11/17 06:41:54;;;;;;;;;;;;;;;9.72;57.72;99453.72;5070238;28;20396;-76
2023/11/17 06:44:20;;;;;;;;;;;;;;;9.77;57.35;99453.22;5071652;28;19912;-76
2023/11/17 06:46:49;;;;;;;;;;;;;;;9.71;57.76;99443.38;5071963;28;19919;-77
2023/11/17 06:49:16;;;;;;;;;;;;;;;9.78;57.74;99436.41;5090285;28;19918;-77
2023/11/17 06:51:43;;;;;;;;;;;;;;;9.86;57.54;99444.25;5082506;28;19912;-77
2023/11/17 06:54:10;;;;;;;;;;;;;;;9.93;57.14;99436.44;5080510;28;20420;-78
2023/11/17 06:56:40;;;;;;;;;;;;;;;9.95;57.25;99431.81;5083747;28;19939;-77
2023/11/17 06:59:06;;;;;;;;;;;;;;;10.03;57.34;99432.56;5076010;28;19916;-77
2023/11/17 07:01:35;;;;;;;;;;;;;;;10.09;57.25;99437.16;5073878;28;19970;-77
2023/11/17 07:04:02;;;;;;;;;;;;;;;10.14;57.12;99440.06;5071290;28;19927;-76
2023/11/17 07:06:28;;;;;;;;;;;;;;;10.16;57.38;99438.06;5071516;28;20343;-77
2023/11/17 07:08:53;;;;;;;;;;;;;;;10.19;57.73;99435.09;5078807;28;19908;-76
2023/11/17 07:11:18;;;;;;;;;;;;;;;10.27;57.08;99439.50;5075096;28;19913;-77
2023/11/17 07:13:45;;;;;;;;;;;;;;;10.31;57.48;99448.69;5086403;28;19923;-77
2023/11/17 07:16:12;;;;;;;;;;;;;;;10.35;57.18;99439.41;5091324;28;19912;-77
2023/11/17 07:18:38;;;;;;;;;;;;;;;10.33;57.26;99438.78;5087566;28;19912;-77
2023/11/17 07:21:04;;;;;;;;;;;;;;;10.37;56.39;99426.03;5089236;28;20132;-78
2023/11/17 07:23:29;;;;;;;;;;;;;;;10.39;56.89;99416.94;5081469;28;19960;-77
2023/11/17 07:25:55;;;;;;;;;;;;;;;10.42;56.52;99402.59;5076966;28;19970;-77
2023/11/17 07:28:21;;;;;;;;;;;;;;;10.42;57.05;99394.69;5089973;28;19916;-77
2023/11/17 07:30:47;;;;;;;;;;;;;;;10.45;56.46;99383.78;5084163;28;19923;-76
2023/11/17 07:33:16;;;;;;;;;;;;;;;10.44;56.33;99364.47;5089653;28;19916;-76
2023/11/17 07:35:41;;;;;;;;;;;;;;;10.52;56.94;99365.38;5091789;28;19918;-77
2023/11/17 07:38:07;;;;;;;;;;;;;;;10.60;56.12;99352.91;5080773;28;19995;-76
2023/11/17 07:40:32;;;;;;;;;;;;;;;10.68;56.37;99362.56;5072919;28;19927;-76
2023/11/17 07:42:57;;;;;;;;;;;;;;;10.74;56.29;99365.28;5087307;28;19920;-77
2023/11/17 07:45:23;;;;;;;;;;;;;;;10.81;56.20;99373.28;5086514;28;19916;-77
2023/11/17 07:47:48;;;;;;;;;;;;;;;10.85;56.25;99371.91;5061303;28;19916;-77
2023/11/17 07:50:13;;;;;;;;;;;;;;;10.89;55.74;99383.75;5072211;28;20325;-77
2023/11/17 07:52:43;;;;;;;;;;;;;;;10.93;55.66;99400.06;5091293;28;20304;-77
2023/11/17 07:55:09;;;;;;;;;;;;;;;10.96;55.88;99404.97;5082870;28;19966;-77
2023/11/17 07:57:35;;;;;;;;;;;;;;;11.01;55.74;99402.59;5079782;28;19924;-78
2023/11/17 08:00:01;;;;;;;;;;;;;;;11.00;55.82;99396.50;5088404;28;20397;-77
2023/11/17 08:02:26;;;;;;;;;;;;;;;11.03;55.99;99401.41;5089331;28;19972;-77
2023/11/17 08:04:51;;;;;;;;;;;;;;;11.10;55.54;99393.56;5089518;28;19998;-77
2023/11/17 08:07:17;;;;;;;;;;;;;;;11.20;56.33;99378.28;5086232;28;19923;-77
2023/11/17 08:09:43;;;;;;;;;;;;;;;11.28;55.33;99380.78;5070364;28;19917;-77
2023/11/17 08:12:08;;;;;;;;;;;;;;;11.36;55.46;99366.66;5071845;28;19924;-76
2023/11/17 08:14:34;;;;;;;;;;;;;;;11.39;54.75;99374.19;5072304;28;19927;-77
2023/11/17 08:17:00;;;;;;;;;;;;;;;11.43;55.62;99365.72;5076591;28;19923;-77
2023/11/17 08:19:25;;;;;;;;;;;;;;;11.53;55.16;99351.34;5081551;28;19928;-77
2023/11/17 08:21:51;;;;;;;;;;;;;;;11.58;54.58;99339.22;5081510;28;19919;-77
2023/11/17 08:24:20;;;;;;;;;;;;;;;11.60;55.32;99344.31;5075920;28;19928;-77
2023/11/17 08:26:46;;;;;;;;;;;;;;;11.57;55.67;99353.44;5084048;28;19946;-77
2023/11/17 08:29:13;;;;;;;;;;;;;;;11.59;55.63;99354.06;5078467;28;19916;-75
2023/11/17 08:31:38;;;;;;;;;;;;;;;11.64;55.11;99351.69;5074168;28;19912;-76
2023/11/17 08:34:04;;;;;;;;;;;;;;;11.67;54.78;99346.00;5078699;28;20465;-77
2023/11/17 08:36:30;;;;;;;;;;;;;;;11.63;55.85;99350.03;5078655;28;19923;-77
2023/11/17 08:38:58;;;;;;;;;;;;;;;11.71;55.80;99339.31;5065227;28;19921;-77
2023/11/17 08:41:24;;;;;;;;;;;;;;;11.83;54.55;99341.50;5084231;28;19923;-77
2023/11/17 08:43:51;;;;;;;;;;;;;;;11.93;54.98;99332.25;5080495;28;19917;-76
2023/11/17 08:46:17;;;;;;;;;;;;;;;12.01;55.03;99332.09;5078946;28;19924;-77
2023/11/17 08:48:42;;;;;;;;;;;;;;;12.08;54.29;99316.28;5080950;28;19916;-77
2023/11/17 08:51:08;;;;;;;;;;;;;;;12.14;54.09;99310.19;5078800;28;19917;-77
2023/11/17 08:53:33;;;;;;;;;;;;;;;12.18;54.09;99310.63;5090563;28;20404;-78
2023/11/17 08:56:01;;;;;;;;;;;;;;;12.29;54.07;99305.63;5089282;28;19916;-77
2023/11/17 08:58:26;;;;;;;;;;;;;;;12.43;54.00;99301.22;5091062;28;19924;-78
2023/11/17 09:00:52;;;;;;;;;;;;;;;12.54;53.38;99297.19;5081042;28;19921;-77
2023/11/17 09:03:17;;;;;;;;;;;;;;;12.60;53.70;99289.28;5087707;28;20015;-78
2023/11/17 09:05:42;;;;;;;;;;;;;;;12.63;53.73;99294.22;5062757;28;20026;-77
2023/11/17 09:08:08;;;;;;;;;;;;;;;12.70;53.69;99273.84;5064273;28;20041;-78
2023/11/17 09:10:34;;;;;;;;;;;;;;;12.83;53.66;99282.88;5090950;28;19924;-77
2023/11/17 09:12:59;;;;;;;;;;;;;;;12.94;52.92;99288.41;5081949;28;19916;-77
2023/11/17 09:15:25;;;;;;;;;;;;;;;13.01;53.24;99291.88;5088387;28;19939;-77
2023/11/17 09:17:51;;;;;;;;;;;;;;;13.09;52.67;99290.06;5079207;28;20420;-76
2023/11/17 09:20:17;;;;;;;;;;;;;;;13.16;52.74;99281.13;5087526;28;20044;-76
2023/11/17 09:22:43;;;;;;;;;;;;;;;13.20;52.62;99285.03;5077696;28;19951;-78
2023/11/17 09:25:18;;;;;;;;;;;;;;;13.26;52.57;99294.00;5085588;28;20412;-77
2023/11/17 09:27:44;;;;;;;;;;;;;;;13.27;52.30;99299.13;5073387;28;19959;-77
2023/11/17 09:30:14;;;;;;;;;;;;;;;13.30;52.47;99292.59;5091042;28;20003;-78
2023/11/17 09:32:43;;;;;;;;;;;;;;;13.23;52.33;99284.63;5078050;28;19947;-77
2023/11/17 09:35:13;;;;;;;;;;;;;;;13.27;52.19;99285.03;5074880;28;20309;-77
2023/11/17 09:37:44;;;;;;;;;;;;;;;13.26;52.30;99262.19;5082293;28;19923;-77
2023/11/17 09:40:10;;;;;;;;;;;;;;;13.23;52.65;99250.16;5081062;28;20415;-76
2023/11/17 09:42:36;;;;;;;;;;;;;;;13.21;52.56;99238.94;5085215;28;20385;-77
2023/11/17 09:45:04;;;;;;;;;;;;;;;13.15;52.75;99239.72;5076237;28;19924;-76
2023/11/17 09:47:31;;;;;;;;;;;;;;;13.14;52.48;99229.31;5080067;28;19916;-77
2023/11/17 09:49:57;;;;;;;;;;;;;;;13.14;52.99;99235.44;5060180;28;20456;-76
2023/11/17 09:52:23;;;;;;;;;;;;;;;13.14;52.77;99221.38;5074666;28;19935;-75
2023/11/17 09:54:49;;;;;;;;;;;;;;;13.17;52.90;99215.69;5087542;28;19988;-76
2023/11/17 09:57:18;;;;;;;;;;;;;;;13.19;52.94;99209.16;5083226;28;19920;-77
2023/11/17 09:59:44;;;;;;;;;;;;;;;13.13;53.23;99206.50;5065771;28;19920;-77
2023/11/17 10:02:13;;;;;;;;;;;;;;;13.13;53.18;99186.09;5076253;28;19922;-77
2023/11/17 10:04:39;;;;;;;;;;;;;;;13.14;53.19;99173.66;5083742;28;20016;-77
2023/11/17 10:07:06;;;;;;;;;;;;;;;13.16;52.85;99167.13;5087296;28;19999;-76
2023/11/17 10:09:32;;;;;;;;;;;;;;;13.20;53.08;99168.38;5088091;28;19923;-76
2023/11/17 10:11:59;;;;;;;;;;;;;;;13.25;53.07;99175.72;5061347;28;19917;-77
2023/11/17 10:14:26;;;;;;;;;;;;;;;13.30;52.74;99175.94;5072366;28;20364;-77
2023/11/17 10:16:54;;;;;;;;;;;;;;;13.36;52.39;99167.16;5071904;28;19916;-76
2023/11/17 10:19:19;;;;;;;;;;;;;;;13.40;52.25;99164.94;5077514;28;20015;-77
2023/11/17 10:21:46;;;;;;;;;;;;;;;13.47;52.11;99149.84;5078023;28;20010;-76
2023/11/17 10:24:11;;;;;;;;;;;;;;;13.53;51.70;99155.13;5081562;28;19920;-77
2023/11/17 10:26:39;;;;;;;;;;;;;;;13.52;51.57;99147.38;5084180;28;20411;-76
2023/11/17 10:29:05;;;;;;;;;;;;;;;13.52;51.55;99148.19;5083839;28;20372;-76
2023/11/17 10:31:32;;;;;;;;;;;;;;;13.50;51.81;99155.53;5089825;28;19951;-77
2023/11/17 10:34:00;;;;;;;;;;;;;;;13.39;51.80;99158.81;5092341;28;19987;-77
2023/11/17 10:36:25;;;;;;;;;;;;;;;13.40;51.92;99149.03;5091415;28;19973;-76
2023/11/17 10:39:02;;;;;;;;;;;;;;;13.41;51.83;99153.31;5090913;28;19912;-76
2023/11/17 10:41:30;;;;;;;;;;;;;;;13.36;52.01;99143.28;5092192;28;19916;-76
2023/11/17 10:43:58;;;;;;;;;;;;;;;13.39;52.10;99139.44;5065612;28;20515;-76
2023/11/17 10:46:27;;;;;;;;;;;;;;;13.38;51.86;99132.47;5071679;28;19913;-76
2023/11/17 10:48:55;;;;;;;;;;;;;;;13.42;51.78;99137.19;5063834;28;19916;-77
2023/11/17 10:51:21;;;;;;;;;;;;;;;13.40;51.59;99127.81;5091108;28;19922;-76
2023/11/17 10:54:05;;;;;;;;;;;;;;;13.46;51.82;99117.19;5091855;28;19912;-76
2023/11/17 10:56:32;;;;;;;;;;;;;;;13.49;51.96;99122.09;5089421;28;19922;-76
2023/11/17 10:58:58;;;;;;;;;;;;;;;13.55;52.11;99115.97;5086981;28;19915;-76
2023/11/17 11:01:29;;;;;;;;;;;;;;;13.57;51.57;99110.44;5075119;28;19920;-78
2023/11/17 11:03:55;;;;;;;;;;;;;;;13.60;51.72;99110.84;5068083;28;19920;-76
2023/11/17 11:06:20;;;;;;;;;;;;;;;13.66;51.57;99107.34;5088018;28;20316;-77
2023/11/17 11:08:56;;;;;;;;;;;;;;;13.71;51.55;99092.66;5072971;28;20286;-76
2023/11/17 11:11:25;;;;;;;;;;;;;;;13.65;51.47;99089.00;5077435;28;20018;-76
2023/11/17 11:13:54;;;;;;;;;;;;;;;13.66;51.59;99082.66;5073478;28;19912;-76
2023/11/17 11:16:20;;;;;;;;;;;;;;;13.70;51.66;99075.09;5087704;28;20403;-76
2023/11/17 11:18:47;;;;;;;;;;;;;;;13.67;51.64;99074.50;5077649;28;19999;-76
2023/11/17 11:21:18;;;;;;;;;;;;;;;13.70;51.91;99081.22;5081185;28;19920;-76
2023/11/17 11:23:45;;;;;;;;;;;;;;;13.77;51.74;99086.50;5077301;28;19920;-76
2023/11/17 11:26:11;;;;;;;;;;;;;;;13.76;51.75;99079.56;5065179;28;19919;-77
2023/11/17 11:28:39;;;;;;;;;;;;;;;13.78;51.73;99075.69;5074237;28;19913;-76
2023/11/17 11:31:06;;;;;;;;;;;;;;;13.80;51.78;99072.81;5076496;28;19935;-77
2023/11/17 11:33:31;;;;;;;;;;;;;;;13.82;51.88;99068.13;5077597;28;20003;-77
2023/11/17 11:36:02;;;;;;;;;;;;;;;13.82;51.56;99062.81;5071361;28;19955;-77
2023/11/17 11:38:28;;;;;;;;;;;;;;;13.85;51.46;99063.19;5053487;28;19913;-77
2023/11/17 11:40:54;;;;;;;;;;;;;;;13.82;51.53;99060.97;5071049;28;20346;-76
2023/11/17 11:43:19;;;;;;;;;;;;;;;13.83;51.77;99051.16;5090643;28;19919;-77
2023/11/17 11:45:46;;;;;;;;;;;;;;;13.82;51.71;99055.66;5091300;28;20010;-76
2023/11/17 11:48:14;;;;;;;;;;;;;;;13.83;51.52;99051.97;5091046;28;20418;-76
2023/11/17 11:50:40;;;;;;;;;;;;;;;13.84;51.49;99043.00;5073083;28;20002;-77
2023/11/17 11:53:07;;;;;;;;;;;;;;;13.86;51.69;99042.78;5091052;28;19911;-76
2023/11/17 11:55:33;;;;;;;;;;;;;;;13.85;51.57;99030.53;5085359;28;19920;-76
2023/11/17 11:57:58;;;;;;;;;;;;;;;13.92;51.64;99031.31;5083534;28;20006;-77
2023/11/17 12:00:26;;;;;;;;;;;;;;;13.96;51.16;99022.72;5095011;28;20014;-76
2023/11/17 12:02:58;;;;;;;;;;;;;;;13.99;51.00;99005.56;5083572;28;20419;-76
2023/11/17 12:05:23;;;;;;;;;;;;;;;14.03;51.21;98996.16;5056574;28;20393;-76
2023/11/17 12:07:49;;;;;;;;;;;;;;;14.07;51.22;98988.56;5075004;28;19923;-77
2023/11/17 12:10:17;;;;;;;;;;;;;;;14.06;51.10;98989.59;5083888;28;19955;-77
2023/11/17 12:12:44;;;;;;;;;;;;;;;14.07;51.29;98981.41;5092773;28;20001;-76
2023/11/17 12:15:10;;;;;;;;;;;;;;;14.12;51.14;98973.66;5094897;28;19912;-76
2023/11/17 12:17:42;;;;;;;;;;;;;;;14.18;51.11;98983.41;5092052;28;19923;-77
2023/11/17 12:20:24;;;;;;;;;;;;;;;14.24;50.86;98992.38;5091349;28;19920;-76
2023/11/17 12:22:59;;;;;;;;;;;;;;;14.24;50.97;99000.34;5074632;28;19923;-76
2023/11/17 12:25:26;;;;;;;;;;;;;;;14.19;51.18;99008.13;5074293;28;19923;-76
2023/11/17 12:27:52;;;;;;;;;;;;;;;14.11;50.99;99006.50;5084394;28;19916;-77
2023/11/17 12:30:18;;;;;;;;;;;;;;;14.09;50.86;99000.59;5073551;28;20305;-75
2023/11/17 12:32:45;;;;;;;;;;;;;;;14.07;51.13;99007.16;5092518;28;19916;-77
2023/11/17 12:35:14;;;;;;;;;;;;;;;14.06;51.18;98995.72;5093444;28;19916;-76
2023/11/17 12:37:40;;;;;;;;;;;;;;;14.03;51.14;98995.34;5073994;28;19974;-75
2023/11/17 12:40:18;;;;;;;;;;;;;;;14.04;51.24;98986.34;5073833;28;19920;-76
2023/11/17 12:42:43;;;;;;;;;;;;;;;14.08;51.11;98992.84;5094404;28;19916;-76
2023/11/17 12:45:12;;;;;;;;;;;;;;;14.10;50.94;98988.94;5094320;28;20385;-76
2023/11/17 12:47:37;;;;;;;;;;;;;;;14.14;51.06;98987.53;5075951;28;19966;-77